Time;durP1;ratioP1;P1;durP2;ratioP2;P2;SDS_P1;SDS_P2;PMS_P1;PMS_P2;Temp;Humidity;BMP_temperature;BMP_pressure;BME280_temperature;BME280_humidity;BME280_pressure;Samples;Min_cycle;Max_cycle;Signal;HPM_P1;HPM_P2
2023/10/20 00:00:06;;;;;;;68.25;60.35;;;15.10;99.90;;;;;;5069580;28;20044;-66
2023/10/20 00:02:33;;;;;;;73.22;63.53;;;14.00;99.90;;;;;;5067710;28;20083;-66
2023/10/20 00:05:03;;;;;;;66.97;59.92;;;18.30;99.90;;;;;;5067744;28;20055;-66
2023/10/20 00:07:29;;;;;;;71.50;62.33;;;13.70;99.90;;;;;;5070448;28;20066;-66
2023/10/20 00:09:55;;;;;;;76.03;63.33;;;18.60;99.90;;;;;;5070173;28;20082;-66
2023/10/20 00:12:21;;;;;;;69.60;62.63;;;13.80;99.90;;;;;;5067107;28;20079;-66
2023/10/20 00:14:47;;;;;;;68.32;61.10;;;18.40;99.90;;;;;;5071520;28;20044;-66
2023/10/20 00:17:12;;;;;;;72.82;63.83;;;17.70;99.90;;;;;;5068747;28;20525;-66
2023/10/20 00:19:38;;;;;;;71.03;63.38;;;14.00;99.90;;;;;;5066914;28;20064;-66
2023/10/20 00:22:04;;;;;;;77.05;64.43;;;16.00;99.90;;;;;;5066709;28;20036;-66
2023/10/20 00:24:29;;;;;;;67.65;60.42;;;18.40;99.90;;;;;;5070733;28;20056;-66
2023/10/20 00:26:55;;;;;;;71.70;64.00;;;17.80;99.90;;;;;;5068518;28;20040;-66
2023/10/20 00:29:21;;;;;;;59.75;48.05;;;18.60;99.90;;;;;;5066692;28;20461;-66
2023/10/20 00:31:47;;;;;;;59.63;45.88;;;14.80;99.90;;;;;;5064796;28;20066;-65
2023/10/20 00:34:13;;;;;;;67.97;60.60;;;14.00;99.90;;;;;;5070203;28;20067;-66
2023/10/20 00:36:38;;;;;;;69.15;61.13;;;14.10;99.90;;;;;;5067771;28;20032;-66
2023/10/20 00:39:06;;;;;;;66.88;59.03;;;14.10;99.90;;;;;;5067137;28;20040;-65
2023/10/20 00:41:34;;;;;;;67.78;60.00;;;15.30;99.90;;;;;;5067878;28;20120;-65
2023/10/20 00:44:00;;;;;;;71.55;59.70;;;16.90;99.90;;;;;;5066416;28;20050;-64
2023/10/20 00:46:25;;;;;;;52.47;43.50;;;14.40;99.90;;;;;;5067736;28;20036;-64
2023/10/20 00:48:51;;;;;;;70.82;61.22;;;16.70;99.90;;;;;;5069791;28;20123;-65
2023/10/20 00:51:18;;;;;;;69.78;62.28;;;18.10;99.90;;;;;;5067535;28;21593;-65
2023/10/20 00:53:45;;;;;;;68.18;59.22;;;14.50;99.90;;;;;;5067281;28;20044;-65
2023/10/20 00:56:11;;;;;;;66.70;59.63;;;17.40;99.90;;;;;;5066266;28;20408;-64
2023/10/20 00:58:37;;;;;;;64.40;57.58;;;18.60;99.90;;;;;;5069547;28;20484;-65
2023/10/20 01:01:04;;;;;;;67.93;60.92;;;14.70;99.90;;;;;;5067402;28;20052;-64
2023/10/20 01:03:32;;;;;;;61.97;55.33;;;13.90;99.90;;;;;;5067217;28;20421;-64
2023/10/20 01:05:58;;;;;;;65.25;58.50;;;15.50;99.90;;;;;;5065953;28;20063;-64
2023/10/20 01:08:24;;;;;;;65.03;57.22;;;20.60;99.90;;;;;;5067376;28;20524;-64
2023/10/20 01:10:53;;;;;;;63.40;56.70;;;15.00;99.90;;;;;;5065728;28;20032;-64
2023/10/20 01:13:19;;;;;;;61.97;55.28;;;14.10;99.90;;;;;;5066755;28;20051;-64
2023/10/20 01:15:45;;;;;;;61.95;55.63;;;15.10;99.90;;;;;;5066988;28;20044;-64
2023/10/20 01:18:11;;;;;;;61.53;54.95;;;17.40;99.90;;;;;;5067215;28;20040;-64
2023/10/20 01:20:38;;;;;;;64.88;57.92;;;15.00;99.90;;;;;;5067020;28;20518;-64
2023/10/20 01:23:04;;;;;;;63.80;57.00;;;13.90;99.90;;;;;;5065996;28;20040;-64
2023/10/20 01:25:29;;;;;;;63.70;56.80;;;14.10;99.90;;;;;;5065707;28;20055;-64
2023/10/20 01:27:55;;;;;;;63.58;56.33;;;16.60;99.90;;;;;;5067388;28;20405;-64
2023/10/20 01:30:21;;;;;;;63.10;56.20;;;14.50;99.90;;;;;;5066844;28;20115;-64
2023/10/20 01:32:47;;;;;;;64.85;58.42;;;17.80;99.90;;;;;;5067756;28;20462;-64
2023/10/20 01:35:13;;;;;;;61.78;55.20;;;14.50;99.90;;;;;;5067729;28;20032;-64
2023/10/20 01:37:42;;;;;;;63.50;56.67;;;14.50;99.90;;;;;;5067099;28;20085;-64
2023/10/20 01:40:09;;;;;;;66.50;56.30;;;14.60;99.90;;;;;;5066480;28;20040;-64
2023/10/20 01:42:35;;;;;;;68.90;59.28;;;18.20;99.90;;;;;;5063417;28;20358;-64
2023/10/20 01:45:01;;;;;;;60.88;54.47;;;16.70;99.90;;;;;;5066844;28;20768;-65
2023/10/20 01:47:27;;;;;;;63.35;56.25;;;17.70;99.90;;;;;;5066977;28;20037;-64
2023/10/20 01:49:52;;;;;;;68.25;60.03;;;17.00;99.90;;;;;;5064873;28;20114;-63
2023/10/20 01:52:18;;;;;;;63.28;55.58;;;14.60;99.90;;;;;;5066107;28;20089;-64
2023/10/20 01:54:45;;;;;;;66.85;58.60;;;14.90;99.90;;;;;;5065282;28;20036;-63
2023/10/20 01:57:11;;;;;;;63.22;56.13;;;17.70;99.90;;;;;;5067414;28;20072;-62
2023/10/20 01:59:36;;;;;;;67.85;60.42;;;14.50;99.90;;;;;;5066187;28;20068;-63
2023/10/20 02:02:02;;;;;;;63.97;55.95;;;14.80;99.90;;;;;;5066349;28;20033;-64
2023/10/20 02:04:27;;;;;;;63.30;56.45;;;13.80;99.90;;;;;;5048417;28;20045;-63
2023/10/20 02:06:53;;;;;;;68.20;56.08;;;18.40;99.90;;;;;;5047233;28;20414;-64
2023/10/20 02:09:19;;;;;;;66.97;59.70;;;17.60;99.90;;;;;;5061710;28;20524;-65
2023/10/20 02:11:44;;;;;;;66.97;55.75;;;13.90;99.90;;;;;;5067184;28;20040;-63
2023/10/20 02:14:10;;;;;;;65.88;55.40;;;14.70;99.90;;;;;;5051993;28;20048;-64
2023/10/20 02:16:36;;;;;;;62.92;56.08;;;18.30;99.90;;;;;;5047282;28;20073;-63
2023/10/20 02:19:01;;;;;;;61.22;54.38;;;17.90;99.90;;;;;;5058187;28;20040;-63
2023/10/20 02:21:27;;;;;;;63.90;56.42;;;18.00;99.90;;;;;;5066763;28;20036;-63
2023/10/20 02:23:52;;;;;;;63.95;53.42;;;14.10;99.90;;;;;;5066925;28;20071;-64
2023/10/20 02:26:19;;;;;;;63.90;54.50;;;16.00;99.90;;;;;;5067401;28;20044;-63
2023/10/20 02:28:44;;;;;;;61.13;54.63;;;18.20;99.90;;;;;;5067118;28;20441;-63
2023/10/20 02:31:19;;;;;;;51.10;40.92;;;14.40;99.90;;;;;;5067322;28;20036;-63
2023/10/20 02:33:44;;;;;;;59.80;52.30;;;18.00;99.90;;;;;;5055390;28;20063;-64
2023/10/20 02:36:18;;;;;;;60.92;52.75;;;17.70;99.90;;;;;;5047570;28;20041;-62
2023/10/20 02:38:44;;;;;;;63.15;56.22;;;13.90;99.90;;;;;;5054296;28;20110;-63
2023/10/20 02:41:10;;;;;;;63.65;53.85;;;13.70;99.90;;;;;;5060714;28;20052;-63
2023/10/20 02:43:36;;;;;;;70.55;55.50;;;17.60;99.90;;;;;;5055936;28;20049;-63
2023/10/20 02:46:02;;;;;;;64.90;57.72;;;15.90;99.90;;;;;;5047316;28;20430;-62
2023/10/20 02:48:28;;;;;;;74.13;60.00;;;16.40;99.90;;;;;;5055372;28;20526;-64
2023/10/20 02:50:54;;;;;;;67.65;58.92;;;14.20;99.90;;;;;;5080563;28;20043;-63
2023/10/20 02:53:20;;;;;;;76.53;59.95;;;15.10;99.90;;;;;;5076883;28;20103;-62
2023/10/20 02:55:46;;;;;;;52.10;42.08;;;17.90;99.90;;;;;;5067827;28;20039;-62
2023/10/20 02:58:12;;;;;;;73.10;59.45;;;17.90;99.90;;;;;;5067379;28;20486;-62
2023/10/20 03:00:42;;;;;;;63.70;55.45;;;18.30;99.90;;;;;;5066540;28;20055;-66
2023/10/20 03:03:08;;;;;;;81.18;59.55;;;18.00;99.90;;;;;;5066279;28;20047;-66
2023/10/20 03:05:34;;;;;;;71.63;62.33;;;16.60;99.90;;;;;;5066575;28;20044;-66
2023/10/20 03:08:00;;;;;;;76.40;63.75;;;17.60;99.90;;;;;;5066798;28;20109;-66
2023/10/20 03:10:26;;;;;;;71.75;59.95;;;13.80;99.90;;;;;;5064981;28;20044;-66
2023/10/20 03:12:51;;;;;;;74.90;60.65;;;17.50;99.90;;;;;;5063056;28;20435;-65
2023/10/20 03:15:17;;;;;;;67.03;59.72;;;17.90;99.90;;;;;;5046447;28;20116;-65
2023/10/20 03:17:43;;;;;;;79.45;59.80;;;14.00;99.90;;;;;;5061054;28;20113;-65
2023/10/20 03:20:09;;;;;;;72.30;58.58;;;17.80;99.90;;;;;;5069864;28;20095;-66
2023/10/20 03:22:37;;;;;;;72.90;59.00;;;15.20;99.90;;;;;;5069210;28;20050;-66
2023/10/20 03:25:04;;;;;;;58.92;52.55;;;18.20;99.90;;;;;;5069622;28;20041;-65
2023/10/20 03:27:30;;;;;;;70.63;62.88;;;17.20;99.90;;;;;;5069666;28;20076;-65
2023/10/20 03:29:55;;;;;;;73.10;60.50;;;14.40;99.90;;;;;;5069740;28;20087;-66
2023/10/20 03:32:21;;;;;;;75.70;59.05;;;13.80;99.90;;;;;;5070227;28;20052;-65
2023/10/20 03:34:47;;;;;;;71.63;60.10;;;17.90;99.90;;;;;;5069632;28;20036;-65
2023/10/20 03:37:13;;;;;;;73.90;58.97;;;18.10;99.90;;;;;;5069489;28;20041;-65
2023/10/20 03:39:39;;;;;;;72.30;61.08;;;14.40;99.90;;;;;;5065461;28;20037;-65
2023/10/20 03:42:07;;;;;;;75.50;61.25;;;13.80;99.90;;;;;;5069214;28;20036;-66
2023/10/20 03:44:33;;;;;;;75.82;62.88;;;13.80;99.90;;;;;;5068869;28;20251;-65
2023/10/20 03:46:59;;;;;;;74.68;60.15;;;15.70;99.90;;;;;;5068997;28;20671;-66
2023/10/20 03:49:25;;;;;;;72.82;59.92;;;14.30;99.90;;;;;;5069190;28;20482;-66
2023/10/20 03:51:51;;;;;;;67.82;59.80;;;16.60;99.90;;;;;;5069661;28;20539;-66
2023/10/20 03:54:24;;;;;;;69.72;58.25;;;13.90;99.90;;;;;;5069639;28;20033;-66
2023/10/20 03:56:50;;;;;;;76.57;61.30;;;13.80;99.90;;;;;;5068951;28;20131;-66
2023/10/20 03:59:16;;;;;;;74.60;61.83;;;14.80;99.90;;;;;;5067650;28;20127;-66
2023/10/20 04:01:42;;;;;;;70.80;59.15;;;15.90;99.90;;;;;;5069590;28;20536;-65
2023/10/20 04:04:11;;;;;;;79.43;64.10;;;16.00;99.90;;;;;;5069268;28;20119;-66
2023/10/20 04:06:37;;;;;;;71.78;57.72;;;14.80;99.90;;;;;;5069465;28;20049;-66
2023/10/20 04:09:10;;;;;;;75.85;61.60;;;18.50;99.90;;;;;;5068472;28;20048;-66
2023/10/20 04:11:37;;;;;;;74.50;61.95;;;14.00;99.90;;;;;;5049037;28;20509;-65
2023/10/20 04:14:05;;;;;;;83.22;63.42;;;13.60;99.90;;;;;;5063702;28;20056;-65
2023/10/20 04:16:42;;;;;;;69.80;58.25;;;18.10;99.90;;;;;;5049255;28;20068;-65
2023/10/20 04:19:14;;;;;;;83.18;64.43;;;17.30;99.90;;;;;;5049530;28;20438;-66
2023/10/20 04:21:41;;;;;;;82.30;61.25;;;18.20;99.90;;;;;;5059573;28;20097;-65
2023/10/20 04:24:07;;;;;;;76.38;60.78;;;13.70;99.90;;;;;;5068251;28;20490;-66
2023/10/20 04:26:35;;;;;;;82.47;64.20;;;18.30;99.90;;;;;;5068908;28;20412;-66
2023/10/20 04:53:45;;;;;;;73.63;61.97;;;16.70;99.90;;;;;;5054383;28;20053;-66
2023/10/20 04:56:33;;;;;;;76.07;60.35;;;18.20;99.90;;;;;;5065622;28;20040;-65
2023/10/20 04:59:05;;;;;;;68.22;60.80;;;14.20;99.90;;;;;;5067869;28;20490;-66
2023/10/20 05:01:48;;;;;;;56.50;45.58;;;15.30;99.90;;;;;;5067761;28;20040;-66
2023/10/20 05:07:09;;;;;;;68.20;60.85;;;18.20;99.90;;;;;;5054346;28;20056;-65
2023/10/20 05:09:44;;;;;;;68.65;59.30;;;17.90;99.90;;;;;;5059163;28;20487;-66
2023/10/20 05:12:09;;;;;;;68.13;56.50;;;13.70;99.90;;;;;;5068083;28;20066;-65
2023/10/20 05:14:35;;;;;;;66.25;57.58;;;14.00;99.90;;;;;;5067634;28;20143;-65
2023/10/20 05:17:01;;;;;;;65.90;58.63;;;18.10;99.90;;;;;;5068372;28;20040;-66
2023/10/20 05:19:32;;;;;;;64.05;56.47;;;17.30;99.90;;;;;;5067473;28;20414;-66
2023/10/20 05:21:59;;;;;;;64.78;57.95;;;16.20;99.90;;;;;;5068087;28;20044;-63
2023/10/20 05:24:25;;;;;;;62.20;55.70;;;13.90;99.90;;;;;;5066006;28;20501;-63
2023/10/20 05:26:50;;;;;;;61.15;54.63;;;17.40;99.90;;;;;;5067971;28;20044;-63
2023/10/20 05:29:16;;;;;;;60.80;54.40;;;17.20;99.90;;;;;;5067933;28;20448;-62
2023/10/20 05:31:41;;;;;;;59.45;53.67;;;15.60;99.90;;;;;;5063211;28;20038;-62
2023/10/20 05:34:07;;;;;;;55.58;49.88;;;13.70;99.90;;;;;;5065664;28;20458;-62
2023/10/20 05:36:33;;;;;;;56.50;50.63;;;14.30;99.90;;;;;;5065267;28;20044;-62
2023/10/20 05:38:58;;;;;;;56.05;50.15;;;17.10;99.90;;;;;;5058079;28;20459;-62
2023/10/20 05:41:24;;;;;;;56.83;51.13;;;17.60;99.90;;;;;;5047968;28;20772;-62
2023/10/20 05:43:52;;;;;;;57.13;51.58;;;17.00;99.90;;;;;;5058708;28;20044;-62
2023/10/20 05:46:17;;;;;;;59.13;53.15;;;16.70;99.90;;;;;;5066242;28;20082;-63
2023/10/20 05:48:44;;;;;;;62.05;55.75;;;17.80;99.90;;;;;;5069184;28;20040;-62
2023/10/20 05:51:10;;;;;;;59.47;53.35;;;14.20;99.90;;;;;;5059811;28;20044;-63
2023/10/20 05:53:36;;;;;;;57.25;51.55;;;17.80;99.90;;;;;;5071575;28;20054;-62
2023/10/20 05:56:02;;;;;;;55.35;49.67;;;15.70;99.90;;;;;;5064324;28;20146;-62
2023/10/20 05:58:28;;;;;;;59.15;53.33;;;17.00;99.90;;;;;;5065946;28;20621;-62
2023/10/20 06:00:54;;;;;;;56.90;51.28;;;14.50;99.90;;;;;;5068257;28;20040;-63
2023/10/20 06:03:20;;;;;;;58.35;52.22;;;13.60;99.90;;;;;;5063542;28;20048;-63
2023/10/20 06:05:45;;;;;;;62.40;53.63;;;14.00;99.90;;;;;;5071969;28;20045;-62
2023/10/20 06:08:11;;;;;;;57.97;52.08;;;17.40;99.90;;;;;;5064460;28;20041;-62
2023/10/20 06:10:37;;;;;;;58.42;52.75;;;13.80;99.90;;;;;;5065493;28;20450;-63
2023/10/20 06:13:03;;;;;;;54.67;49.30;;;14.30;99.90;;;;;;5066103;28;20123;-62
2023/10/20 06:15:29;;;;;;;55.42;49.83;;;17.00;99.90;;;;;;5064383;28;20041;-63
2023/10/20 06:17:57;;;;;;;58.47;52.58;;;17.60;99.90;;;;;;5065580;28;20078;-61
2023/10/20 06:20:22;;;;;;;55.20;49.67;;;17.80;99.90;;;;;;5064243;28;20056;-63
2023/10/20 06:22:49;;;;;;;57.28;51.70;;;16.00;99.90;;;;;;5067183;28;20051;-63
2023/10/20 06:25:16;;;;;;;55.88;50.60;;;17.90;99.90;;;;;;5063287;28;20056;-62
2023/10/20 06:27:43;;;;;;;49.05;43.92;;;14.20;99.90;;;;;;5066126;28;20044;-62
2023/10/20 06:30:14;;;;;;;58.00;52.60;;;18.00;99.90;;;;;;5065706;28;20033;-62
2023/10/20 06:32:45;;;;;;;60.15;54.25;;;13.80;99.90;;;;;;5065049;28;20133;-61
2023/10/20 06:35:13;;;;;;;54.22;48.85;;;17.40;99.90;;;;;;5066164;28;20441;-62
2023/10/20 06:37:46;;;;;;;53.15;47.85;;;14.40;99.90;;;;;;5066479;28;20112;-61
2023/10/20 06:40:15;;;;;;;52.65;47.55;;;14.00;99.90;;;;;;5061667;28;20048;-62
2023/10/20 06:42:45;;;;;;;52.92;47.80;;;17.80;99.90;;;;;;5063030;28;20058;-63
2023/10/20 06:45:11;;;;;;;53.75;48.65;;;14.40;99.90;;;;;;5065423;28;20036;-62
2023/10/20 06:47:39;;;;;;;53.95;48.75;;;16.00;99.90;;;;;;5063464;28;20403;-62
2023/10/20 06:50:05;;;;;;;53.42;48.33;;;14.20;99.90;;;;;;5066041;28;20048;-62
2023/10/20 06:52:31;;;;;;;51.10;46.17;;;15.80;99.90;;;;;;5070370;28;20049;-62
2023/10/20 06:54:56;;;;;;;53.25;48.20;;;18.00;99.90;;;;;;5070846;28;20045;-63
2023/10/20 06:57:25;;;;;;;55.38;50.03;;;14.40;99.90;;;;;;5075204;28;20048;-62
2023/10/20 06:59:50;;;;;;;53.20;48.13;;;14.10;99.90;;;;;;5069710;28;20036;-62
2023/10/20 07:02:16;;;;;;;51.72;46.60;;;14.10;99.90;;;;;;5069595;28;20410;-62
2023/10/20 07:04:41;;;;;;;51.45;46.53;;;17.30;99.90;;;;;;5065869;28;20052;-63
2023/10/20 07:07:12;;;;;;;52.88;47.78;;;15.10;99.90;;;;;;5063532;28;20048;-63
2023/10/20 07:09:38;;;;;;;50.15;45.15;;;17.60;99.90;;;;;;5061202;28;20049;-62
2023/10/20 07:12:06;;;;;;;49.97;45.38;;;15.00;99.90;;;;;;5065407;28;20055;-61
2023/10/20 07:14:33;;;;;;;48.75;44.03;;;14.30;99.90;;;;;;5060921;28;20045;-61
2023/10/20 07:17:03;;;;;;;47.50;43.10;;;17.20;99.90;;;;;;5062681;28;20044;-61
2023/10/20 07:19:30;;;;;;;47.58;43.00;;;14.50;99.90;;;;;;5067742;28;20131;-62
2023/10/20 07:21:56;;;;;;;48.63;43.83;;;14.70;99.90;;;;;;5067570;28;20060;-63
2023/10/20 07:24:23;;;;;;;43.22;39.00;;;16.50;99.90;;;;;;5060707;28;20059;-62
2023/10/20 07:26:49;;;;;;;45.85;40.97;;;15.00;99.90;;;;;;5062855;28;20040;-61
2023/10/20 07:29:14;;;;;;;47.33;42.72;;;17.40;99.90;;;;;;5067280;28;20044;-62
2023/10/20 07:31:42;;;;;;;47.35;42.83;;;17.80;99.90;;;;;;5065373;28;20527;-63
2023/10/20 07:34:09;;;;;;;47.42;42.83;;;14.40;99.90;;;;;;5060981;28;20040;-62
2023/10/20 07:36:35;;;;;;;45.70;41.35;;;15.00;99.90;;;;;;5062826;28;20036;-62
2023/10/20 07:39:01;;;;;;;45.03;40.67;;;14.30;99.90;;;;;;5064801;28;20037;-61
2023/10/20 07:41:27;;;;;;;44.63;40.28;;;15.50;99.90;;;;;;5067161;28;20036;-67
2023/10/20 07:43:52;;;;;;;44.55;40.15;;;17.30;99.90;;;;;;5065679;28;20121;-67
2023/10/20 07:46:18;;;;;;;47.63;43.20;;;17.40;99.90;;;;;;5059095;28;20063;-67
2023/10/20 07:48:44;;;;;;;47.25;42.85;;;14.60;99.90;;;;;;5059230;28;20044;-66
2023/10/20 07:51:10;;;;;;;47.17;42.90;;;16.90;99.90;;;;;;5059035;28;20094;-67
2023/10/20 07:53:37;;;;;;;43.78;39.67;;;17.50;99.90;;;;;;5061151;28;20819;-67
2023/10/20 07:56:03;;;;;;;43.92;39.72;;;16.90;99.90;;;;;;5066117;28;20047;-65
2023/10/20 07:58:28;;;;;;;47.05;42.65;;;15.90;99.90;;;;;;5065432;28;20330;-66
2023/10/20 08:00:54;;;;;;;45.83;41.53;;;17.30;99.90;;;;;;5063756;28;20037;-67
2023/10/20 08:03:19;;;;;;;47.15;42.67;;;14.00;99.90;;;;;;5066974;28;20448;-66
2023/10/20 08:05:45;;;;;;;45.58;41.15;;;14.10;99.90;;;;;;5067854;28;20127;-66
2023/10/20 08:08:11;;;;;;;49.65;45.10;;;17.50;99.90;;;;;;5064263;28;20468;-66
2023/10/20 08:10:38;;;;;;;43.40;39.38;;;14.60;99.90;;;;;;5069988;28;20044;-67
2023/10/20 08:13:04;;;;;;;42.85;38.92;;;14.80;99.90;;;;;;5068867;28;20048;-67
2023/10/20 08:15:29;;;;;;;45.63;41.33;;;15.00;99.90;;;;;;5065289;28;20036;-66
2023/10/20 08:17:55;;;;;;;44.50;40.40;;;16.70;99.90;;;;;;5065247;28;20147;-68
2023/10/20 08:20:21;;;;;;;43.58;39.42;;;14.00;99.90;;;;;;5067837;28;20060;-66
2023/10/20 08:22:47;;;;;;;44.30;40.10;;;13.90;99.90;;;;;;5065149;28;20048;-67
2023/10/20 08:25:14;;;;;;;47.63;43.38;;;15.10;99.90;;;;;;5067276;28;20066;-67
2023/10/20 08:27:39;;;;;;;41.08;37.17;;;17.00;99.90;;;;;;5066919;28;20059;-67
2023/10/20 08:30:06;;;;;;;40.47;36.80;;;15.60;99.90;;;;;;5064157;28;20044;-67
2023/10/20 08:32:32;;;;;;;42.85;38.88;;;17.30;99.90;;;;;;5066830;28;20076;-67
2023/10/20 08:34:58;;;;;;;41.00;37.30;;;14.50;99.90;;;;;;5066638;28;20095;-67
2023/10/20 08:37:24;;;;;;;43.47;39.38;;;16.40;99.90;;;;;;5067255;28;20503;-67
2023/10/20 08:39:50;;;;;;;40.03;36.38;;;13.80;99.90;;;;;;5066384;28;20123;-66
2023/10/20 08:42:17;;;;;;;42.30;38.50;;;17.30;99.90;;;;;;5065936;28;20587;-65
2023/10/20 08:44:44;;;;;;;40.10;36.55;;;15.40;99.90;;;;;;5060162;28;20135;-67
2023/10/20 08:47:12;;;;;;;39.70;36.17;;;14.20;99.90;;;;;;5059396;28;20040;-65
2023/10/20 08:49:41;;;;;;;36.15;32.75;;;16.90;99.90;;;;;;5063517;28;20036;-67
2023/10/20 08:52:10;;;;;;;43.42;39.38;;;16.60;99.90;;;;;;5059227;28;20040;-63
2023/10/20 08:54:36;;;;;;;45.10;41.10;;;14.70;99.90;;;;;;5058957;28;20053;-63
2023/10/20 08:57:05;;;;;;;40.17;36.55;;;17.20;99.90;;;;;;5065541;28;20044;-63
2023/10/20 08:59:31;;;;;;;40.75;37.22;;;16.80;99.90;;;;;;5066534;28;20837;-64
2023/10/20 09:01:58;;;;;;;40.88;37.22;;;17.20;99.90;;;;;;5061335;28;20461;-63
2023/10/20 09:04:25;;;;;;;42.58;38.78;;;15.10;99.90;;;;;;5063541;28;20040;-63
2023/10/20 09:06:52;;;;;;;43.45;39.45;;;15.40;99.90;;;;;;5067176;28;20036;-64
2023/10/20 09:09:19;;;;;;;45.35;41.28;;;14.00;99.90;;;;;;5060799;28;20088;-62
2023/10/20 09:11:45;;;;;;;42.60;38.65;;;14.00;99.90;;;;;;5062353;28;20424;-63
2023/10/20 09:14:14;;;;;;;51.58;47.15;;;14.20;99.90;;;;;;5063740;28;20525;-64
2023/10/20 09:16:40;;;;;;;35.90;32.20;;;13.70;99.90;;;;;;5063727;28;20091;-63
2023/10/20 09:19:09;;;;;;;42.88;39.08;;;13.70;99.90;;;;;;5063932;28;20040;-63
2023/10/20 09:21:37;;;;;;;42.08;38.28;;;15.60;99.90;;;;;;5069678;28;20083;-65
2023/10/20 09:24:04;;;;;;;45.50;41.25;;;16.50;99.90;;;;;;5061274;28;20044;-64
2023/10/20 09:26:34;;;;;;;43.53;39.63;;;14.60;99.90;;;;;;5062173;28;20070;-64
2023/10/20 09:29:00;;;;;;;43.17;39.33;;;13.80;99.90;;;;;;5061302;28;20040;-64
2023/10/20 09:31:26;;;;;;;49.63;45.47;;;16.50;99.90;;;;;;5063894;28;20459;-65
2023/10/20 09:33:52;;;;;;;35.20;31.90;;;15.50;99.90;;;;;;5066334;28;20473;-66
2023/10/20 09:36:19;;;;;;;38.88;35.47;;;17.20;99.90;;;;;;5061026;28;20494;-67
2023/10/20 09:38:51;;;;;;;39.65;36.25;;;14.00;99.90;;;;;;5063303;28;20098;-67
2023/10/20 09:41:21;;;;;;;37.78;34.47;;;16.30;99.90;;;;;;5063745;28;20075;-67
2023/10/20 09:43:48;;;;;;;37.78;34.50;;;13.70;99.90;;;;;;5063754;28;20043;-67
2023/10/20 09:46:26;;;;;;;37.00;33.90;;;15.30;99.90;;;;;;5066333;28;20113;-67
2023/10/20 09:48:55;;;;;;;39.70;36.25;;;15.80;99.90;;;;;;5063976;28;20129;-67
2023/10/20 09:51:21;;;;;;;33.75;30.75;;;17.00;99.90;;;;;;5065496;28;20045;-67
2023/10/20 09:53:48;;;;;;;33.03;29.92;;;16.70;99.90;;;;;;5062199;28;20028;-67
2023/10/20 09:56:16;;;;;;;38.28;34.97;;;15.10;99.90;;;;;;5064556;28;20044;-67
2023/10/20 09:58:41;;;;;;;41.65;38.10;;;16.10;99.90;;;;;;5064635;28;20044;-67
2023/10/20 10:01:07;;;;;;;38.85;35.55;;;14.10;99.90;;;;;;5067525;28;20094;-67
2023/10/20 10:03:40;;;;;;;38.58;35.17;;;16.60;99.90;;;;;;5064457;28;20083;-67
2023/10/20 10:06:12;;;;;;;40.70;37.30;;;16.00;99.90;;;;;;5062265;28;20437;-67
2023/10/20 10:08:40;;;;;;;36.50;33.40;;;17.10;99.90;;;;;;5058454;28;20090;-67
2023/10/20 10:11:26;;;;;;;41.88;38.58;;;16.90;99.90;;;;;;5064536;28;20044;-67
2023/10/20 10:13:54;;;;;;;40.30;36.47;;;13.60;99.90;;;;;;5065451;28;20494;-67
2023/10/20 10:16:22;;;;;;;39.70;36.20;;;13.60;99.90;;;;;;5067065;28;20045;-67
2023/10/20 10:18:50;;;;;;;38.33;35.15;;;16.90;99.90;;;;;;5069282;28;20085;-67
2023/10/20 10:21:28;;;;;;;41.28;37.78;;;13.70;99.90;;;;;;5065421;28;20123;-67
2023/10/20 10:24:22;;;;;;;51.33;47.03;;;13.80;99.90;;;;;;5064659;28;20076;-67
2023/10/20 10:26:56;;;;;;;43.38;39.75;;;16.70;99.90;;;;;;5068692;28;20044;-67
2023/10/20 10:29:53;;;;;;;40.58;36.90;;;16.90;99.90;;;;;;5066145;28;20794;-66
2023/10/20 10:32:25;;;;;;;41.78;38.38;;;16.80;99.90;;;;;;5083659;28;20063;-67
2023/10/20 10:34:52;;;;;;;44.60;41.17;;;16.80;99.90;;;;;;5069051;28;20044;-67
2023/10/20 10:37:37;;;;;;;39.70;36.05;;;16.60;99.90;;;;;;5068057;28;20040;-67
2023/10/20 10:40:18;;;;;;;37.27;33.90;;;13.70;99.90;;;;;;5066860;28;20062;-67
2023/10/20 10:42:51;;;;;;;38.97;35.72;;;14.60;99.90;;;;;;5065910;28;20045;-67
2023/10/20 10:45:21;;;;;;;42.22;38.97;;;13.40;99.90;;;;;;5067784;28;20105;-67
2023/10/20 10:47:48;;;;;;;39.90;36.70;;;15.00;99.90;;;;;;5071571;28;20037;-67
2023/10/20 10:50:16;;;;;;;35.92;32.92;;;13.80;99.90;;;;;;5084995;28;20036;-67
2023/10/20 10:52:42;;;;;;;36.92;34.03;;;14.80;99.90;;;;;;5070823;28;20538;-67
2023/10/20 10:55:09;;;;;;;39.70;36.53;;;16.20;99.90;;;;;;5067642;28;20039;-67
2023/10/20 10:57:35;;;;;;;36.40;33.58;;;16.50;99.90;;;;;;5068306;28;20060;-68
2023/10/20 11:00:03;;;;;;;36.25;33.05;;;14.00;99.90;;;;;;5068461;28;20102;-68
2023/10/20 11:02:29;;;;;;;30.65;27.95;;;13.60;99.90;;;;;;5066764;28;20785;-67
2023/10/20 11:04:55;;;;;;;30.95;28.17;;;16.70;99.90;;;;;;5069115;28;20048;-67
2023/10/20 11:07:22;;;;;;;36.58;33.40;;;16.70;99.90;;;;;;5066712;28;20055;-67
2023/10/20 11:09:47;;;;;;;38.08;34.88;;;13.20;99.90;;;;;;5068333;28;20093;-68
2023/10/20 11:12:14;;;;;;;36.60;33.58;;;16.70;99.90;;;;;;5067930;28;20040;-68
2023/10/20 11:14:39;;;;;;;36.25;33.33;;;13.60;99.90;;;;;;5069108;28;20336;-67
2023/10/20 11:17:05;;;;;;;38.67;35.67;;;14.30;99.90;;;;;;5067368;28;20079;-68
2023/10/20 11:19:31;;;;;;;38.80;35.70;;;16.50;99.90;;;;;;5064687;28;20143;-68
2023/10/20 11:21:57;;;;;;;38.70;35.70;;;16.50;99.90;;;;;;5061805;28;20168;-68
2023/10/20 11:24:34;;;;;;;33.85;31.33;;;13.20;99.90;;;;;;5064080;28;20501;-68
2023/10/20 11:27:02;;;;;;;34.33;31.58;;;14.10;99.90;;;;;;5065540;28;20402;-68
2023/10/20 11:29:29;;;;;;;35.97;32.97;;;13.00;99.90;;;;;;5061704;28;20119;-68
2023/10/20 11:31:56;;;;;;;32.30;29.35;;;14.60;99.90;;;;;;5065866;28;20106;-68
2023/10/20 11:34:23;;;;;;;32.60;29.90;;;12.80;99.90;;;;;;5066109;28;20037;-68
2023/10/20 11:36:48;;;;;;;35.42;32.53;;;16.40;99.90;;;;;;5061988;28;20068;-68
2023/10/20 11:39:15;;;;;;;30.67;28.27;;;16.30;99.90;;;;;;5065105;28;20084;-68
2023/10/20 11:41:41;;;;;;;27.77;25.38;;;13.70;99.90;;;;;;5063655;28;20070;-68
2023/10/20 11:44:07;;;;;;;28.50;26.00;;;16.50;99.90;;;;;;5080837;28;20041;-68
2023/10/20 11:46:33;;;;;;;29.83;27.13;;;15.20;99.90;;;;;;5063797;28;20055;-68
2023/10/20 11:48:58;;;;;;;37.70;34.60;;;12.80;99.90;;;;;;5061126;28;20063;-68
2023/10/20 11:51:24;;;;;;;34.22;31.38;;;16.10;99.90;;;;;;5062088;28;20040;-70
2023/10/20 11:53:50;;;;;;;30.40;27.35;;;16.30;99.90;;;;;;5064841;28;20045;-70
2023/10/20 11:56:16;;;;;;;33.03;30.33;;;16.30;99.90;;;;;;5066057;28;20040;-70
2023/10/20 11:58:42;;;;;;;30.98;28.48;;;12.70;99.90;;;;;;5064267;28;20036;-70
2023/10/20 12:01:08;;;;;;;38.22;35.13;;;12.70;99.90;;;;;;5063370;28;20468;-68
2023/10/20 12:03:33;;;;;;;29.70;27.10;;;16.20;99.90;;;;;;5064136;28;20032;-70
2023/10/20 12:05:59;;;;;;;32.67;30.02;;;14.90;99.90;;;;;;5063483;28;20082;-70
2023/10/20 12:08:25;;;;;;;37.72;34.45;;;15.90;99.90;;;;;;5059928;28;20040;-68
2023/10/20 12:10:50;;;;;;;33.78;31.17;;;15.20;99.90;;;;;;5061743;28;20085;-69
2023/10/20 12:13:16;;;;;;;36.10;33.40;;;13.30;99.90;;;;;;5061569;28;20077;-73
2023/10/20 12:15:42;;;;;;;33.63;30.85;;;12.70;99.90;;;;;;5059663;28;20345;-70
2023/10/20 12:18:07;;;;;;;39.67;36.42;;;16.30;99.90;;;;;;5062178;28;20094;-71
2023/10/20 12:20:33;;;;;;;32.90;30.08;;;17.00;99.90;;;;;;5024560;28;1035860;-69
2023/10/20 12:22:59;;;;;;;32.97;30.38;;;13.30;99.90;;;;;;5063915;28;20044;-70
2023/10/20 12:25:25;;;;;;;29.67;26.27;;;13.90;99.90;;;;;;5064287;28;20706;-69
2023/10/20 12:27:52;;;;;;;36.17;33.35;;;16.30;99.90;;;;;;5058261;28;20044;-69
2023/10/20 12:30:17;;;;;;;35.50;32.92;;;12.90;99.90;;;;;;5059055;28;20046;-70
2023/10/20 12:32:43;;;;;;;37.50;34.70;;;16.60;99.90;;;;;;5076701;28;20032;-69
2023/10/20 12:35:12;;;;;;;38.22;35.22;;;16.50;99.90;;;;;;5060375;28;20110;-69
2023/10/20 12:37:38;;;;;;;35.55;32.90;;;16.50;99.90;;;;;;5060450;28;20460;-69
2023/10/20 12:40:05;;;;;;;33.17;30.45;;;15.50;99.90;;;;;;5062544;28;20045;-70
2023/10/20 12:42:31;;;;;;;34.63;32.03;;;13.70;99.90;;;;;;5064213;28;20962;-70
2023/10/20 12:45:00;;;;;;;33.40;30.70;;;16.90;99.90;;;;;;5044635;28;20044;-68
2023/10/20 12:47:26;;;;;;;40.65;37.25;;;12.70;99.90;;;;;;5039503;28;20056;-70
2023/10/20 12:49:54;;;;;;;35.35;32.35;;;13.20;99.90;;;;;;5059559;28;20040;-69
2023/10/20 12:52:20;;;;;;;35.45;32.65;;;15.50;99.90;;;;;;5042324;28;20534;-70